sensor_id;sensor_type;location;lat;lon;timestamp;P1;durP1;ratioP1;P2;durP2;ratioP2
59788;SDS011;47353;51.614;5.530;2022-11-15T00:01:16;35.25;;;19.70;;
59788;SDS011;47353;51.614;5.530;2022-11-15T00:03:43;40.30;;;19.42;;
59788;SDS011;47353;51.614;5.530;2022-11-15T00:06:11;36.40;;;18.42;;
59788;SDS011;47353;51.614;5.530;2022-11-15T00:08:37;36.45;;;20.92;;
59788;SDS011;47353;51.614;5.530;2022-11-15T00:11:02;42.83;;;21.70;;
59788;SDS011;47353;51.614;5.530;2022-11-15T00:13:29;43.10;;;22.08;;
59788;SDS011;47353;51.614;5.530;2022-11-15T00:15:58;38.75;;;21.48;;
59788;SDS011;47353;51.614;5.530;2022-11-15T00:18:25;42.80;;;22.67;;
59788;SDS011;47353;51.614;5.530;2022-11-15T00:20:50;37.95;;;21.38;;
59788;SDS011;47353;51.614;5.530;2022-11-15T00:23:16;36.65;;;22.00;;
59788;SDS011;47353;51.614;5.530;2022-11-15T00:25:41;39.80;;;22.45;;
59788;SDS011;47353;51.614;5.530;2022-11-15T00:28:07;39.35;;;21.58;;
59788;SDS011;47353;51.614;5.530;2022-11-15T00:30:32;34.83;;;20.98;;
59788;SDS011;47353;51.614;5.530;2022-11-15T00:33:02;35.60;;;20.70;;
59788;SDS011;47353;51.614;5.530;2022-11-15T00:35:30;35.38;;;20.40;;
59788;SDS011;47353;51.614;5.530;2022-11-15T00:37:57;35.03;;;20.80;;
59788;SDS011;47353;51.614;5.530;2022-11-15T00:40:23;34.90;;;20.60;;
59788;SDS011;47353;51.614;5.530;2022-11-15T00:42:48;33.75;;;19.90;;
59788;SDS011;47353;51.614;5.530;2022-11-15T00:45:13;34.50;;;20.05;;
59788;SDS011;47353;51.614;5.530;2022-11-15T00:47:39;36.45;;;20.10;;
59788;SDS011;47353;51.614;5.530;2022-11-15T00:50:04;35.70;;;21.10;;
59788;SDS011;47353;51.614;5.530;2022-11-15T00:52:30;35.13;;;20.33;;
59788;SDS011;47353;51.614;5.530;2022-11-15T00:54:55;31.17;;;19.50;;
59788;SDS011;47353;51.614;5.530;2022-11-15T00:57:21;31.73;;;20.45;;
59788;SDS011;47353;51.614;5.530;2022-11-15T00:59:46;32.78;;;19.75;;
59788;SDS011;47353;51.614;5.530;2022-11-15T01:02:11;32.15;;;20.35;;
59788;SDS011;47353;51.614;5.530;2022-11-15T01:04:37;30.63;;;19.50;;
59788;SDS011;47353;51.614;5.530;2022-11-15T01:07:02;31.45;;;17.05;;
59788;SDS011;47353;51.614;5.530;2022-11-15T01:09:27;32.13;;;19.13;;
59788;SDS011;47353;51.614;5.530;2022-11-15T01:11:53;33.80;;;19.70;;
59788;SDS011;47353;51.614;5.530;2022-11-15T01:14:18;31.52;;;20.10;;
59788;SDS011;47353;51.614;5.530;2022-11-15T01:16:44;31.70;;;18.77;;
59788;SDS011;47353;51.614;5.530;2022-11-15T01:19:09;29.67;;;17.48;;
59788;SDS011;47353;51.614;5.530;2022-11-15T01:21:34;33.85;;;19.38;;
59788;SDS011;47353;51.614;5.530;2022-11-15T01:24:00;32.03;;;19.48;;
59788;SDS011;47353;51.614;5.530;2022-11-15T01:26:25;31.55;;;19.85;;
59788;SDS011;47353;51.614;5.530;2022-11-15T01:28:51;33.78;;;20.05;;
59788;SDS011;47353;51.614;5.530;2022-11-15T01:31:18;31.52;;;19.67;;
59788;SDS011;47353;51.614;5.530;2022-11-15T01:33:45;31.38;;;18.88;;
59788;SDS011;47353;51.614;5.530;2022-11-15T01:36:13;31.90;;;20.02;;
59788;SDS011;47353;51.614;5.530;2022-11-15T01:38:41;33.97;;;20.52;;
59788;SDS011;47353;51.614;5.530;2022-11-15T01:41:11;30.38;;;19.73;;
59788;SDS011;47353;51.614;5.530;2022-11-15T01:43:39;30.30;;;19.52;;
59788;SDS011;47353;51.614;5.530;2022-11-15T01:49:00;31.23;;;19.25;;
59788;SDS011;47353;51.614;5.530;2022-11-15T01:51:29;30.83;;;19.58;;
59788;SDS011;47353;51.614;5.530;2022-11-15T01:53:57;31.33;;;19.50;;
59788;SDS011;47353;51.614;5.530;2022-11-15T01:56:27;31.00;;;18.58;;
59788;SDS011;47353;51.614;5.530;2022-11-15T01:58:58;30.35;;;18.95;;
59788;SDS011;47353;51.614;5.530;2022-11-15T02:01:27;29.88;;;19.10;;
59788;SDS011;47353;51.614;5.530;2022-11-15T02:03:57;30.08;;;19.17;;
59788;SDS011;47353;51.614;5.530;2022-11-15T02:06:25;33.42;;;19.75;;
59788;SDS011;47353;51.614;5.530;2022-11-15T02:08:51;27.23;;;19.00;;
59788;SDS011;47353;51.614;5.530;2022-11-15T02:11:16;32.55;;;19.45;;
59788;SDS011;47353;51.614;5.530;2022-11-15T02:13:42;31.45;;;18.70;;
59788;SDS011;47353;51.614;5.530;2022-11-15T02:16:11;32.42;;;18.98;;
59788;SDS011;47353;51.614;5.530;2022-11-15T02:24:33;30.52;;;19.17;;
59788;SDS011;47353;51.614;5.530;2022-11-15T02:30:29;29.42;;;19.00;;
59788;SDS011;47353;51.614;5.530;2022-11-15T02:33:15;30.65;;;18.55;;
59788;SDS011;47353;51.614;5.530;2022-11-15T02:36:00;29.90;;;18.60;;
59788;SDS011;47353;51.614;5.530;2022-11-15T02:38:31;27.48;;;17.75;;
59788;SDS011;47353;51.614;5.530;2022-11-15T02:43:59;28.70;;;18.10;;
59788;SDS011;47353;51.614;5.530;2022-11-15T02:46:41;36.45;;;19.58;;
59788;SDS011;47353;51.614;5.530;2022-11-15T02:49:32;28.80;;;18.73;;
59788;SDS011;47353;51.614;5.530;2022-11-15T02:52:00;30.63;;;19.38;;
59788;SDS011;47353;51.614;5.530;2022-11-15T02:54:26;30.15;;;18.95;;
59788;SDS011;47353;51.614;5.530;2022-11-15T02:57:02;32.00;;;20.00;;
59788;SDS011;47353;51.614;5.530;2022-11-15T03:02:18;29.02;;;18.75;;
59788;SDS011;47353;51.614;5.530;2022-11-15T03:05:04;35.90;;;19.95;;
59788;SDS011;47353;51.614;5.530;2022-11-15T03:08:04;28.10;;;18.98;;
59788;SDS011;47353;51.614;5.530;2022-11-15T03:10:44;30.40;;;18.63;;
59788;SDS011;47353;51.614;5.530;2022-11-15T03:13:21;32.13;;;19.75;;
59788;SDS011;47353;51.614;5.530;2022-11-15T03:16:15;31.10;;;19.83;;
59788;SDS011;47353;51.614;5.530;2022-11-15T03:18:51;34.67;;;19.55;;
59788;SDS011;47353;51.614;5.530;2022-11-15T03:21:21;32.13;;;20.40;;
59788;SDS011;47353;51.614;5.530;2022-11-15T03:23:47;30.77;;;19.13;;
59788;SDS011;47353;51.614;5.530;2022-11-15T03:26:15;33.97;;;20.67;;
59788;SDS011;47353;51.614;5.530;2022-11-15T03:28:49;30.23;;;19.23;;
59788;SDS011;47353;51.614;5.530;2022-11-15T03:31:19;33.70;;;20.05;;
59788;SDS011;47353;51.614;5.530;2022-11-15T03:34:09;34.72;;;19.83;;
59788;SDS011;47353;51.614;5.530;2022-11-15T03:36:39;31.85;;;19.90;;
59788;SDS011;47353;51.614;5.530;2022-11-15T03:39:05;28.83;;;19.13;;
59788;SDS011;47353;51.614;5.530;2022-11-15T03:41:40;32.25;;;19.58;;
59788;SDS011;47353;51.614;5.530;2022-11-15T03:44:25;33.30;;;19.90;;
59788;SDS011;47353;51.614;5.530;2022-11-15T03:47:03;35.00;;;20.45;;
59788;SDS011;47353;51.614;5.530;2022-11-15T03:49:35;31.60;;;19.10;;
59788;SDS011;47353;51.614;5.530;2022-11-15T03:52:04;28.67;;;19.55;;
59788;SDS011;47353;51.614;5.530;2022-11-15T03:54:31;31.65;;;19.92;;
59788;SDS011;47353;51.614;5.530;2022-11-15T03:56:56;29.95;;;18.80;;
59788;SDS011;47353;51.614;5.530;2022-11-15T03:59:22;33.40;;;19.70;;
59788;SDS011;47353;51.614;5.530;2022-11-15T04:01:47;31.50;;;19.05;;
59788;SDS011;47353;51.614;5.530;2022-11-15T04:04:13;34.30;;;20.77;;
59788;SDS011;47353;51.614;5.530;2022-11-15T04:06:38;30.27;;;20.35;;
59788;SDS011;47353;51.614;5.530;2022-11-15T04:09:03;30.85;;;19.50;;
59788;SDS011;47353;51.614;5.530;2022-11-15T04:11:29;36.30;;;21.20;;
59788;SDS011;47353;51.614;5.530;2022-11-15T04:13:55;35.08;;;20.85;;
59788;SDS011;47353;51.614;5.530;2022-11-15T04:16:20;36.33;;;21.30;;
59788;SDS011;47353;51.614;5.530;2022-11-15T04:18:45;36.40;;;22.05;;
59788;SDS011;47353;51.614;5.530;2022-11-15T04:21:31;43.90;;;22.00;;
59788;SDS011;47353;51.614;5.530;2022-11-15T04:24:15;41.38;;;22.55;;
59788;SDS011;47353;51.614;5.530;2022-11-15T04:26:40;36.22;;;21.38;;
59788;SDS011;47353;51.614;5.530;2022-11-15T04:29:06;38.15;;;22.08;;
59788;SDS011;47353;51.614;5.530;2022-11-15T04:31:50;36.83;;;21.42;;
59788;SDS011;47353;51.614;5.530;2022-11-15T04:34:15;36.65;;;21.98;;
59788;SDS011;47353;51.614;5.530;2022-11-15T04:36:41;39.67;;;21.38;;
59788;SDS011;47353;51.614;5.530;2022-11-15T04:39:25;38.47;;;21.45;;
59788;SDS011;47353;51.614;5.530;2022-11-15T04:41:50;35.85;;;22.17;;
59788;SDS011;47353;51.614;5.530;2022-11-15T04:44:16;33.88;;;21.58;;
59788;SDS011;47353;51.614;5.530;2022-11-15T04:46:41;40.13;;;22.38;;
59788;SDS011;47353;51.614;5.530;2022-11-15T04:49:07;41.83;;;23.40;;
59788;SDS011;47353;51.614;5.530;2022-11-15T04:51:32;42.40;;;22.05;;
59788;SDS011;47353;51.614;5.530;2022-11-15T04:53:58;35.88;;;21.83;;
59788;SDS011;47353;51.614;5.530;2022-11-15T04:56:24;38.88;;;22.15;;
59788;SDS011;47353;51.614;5.530;2022-11-15T04:58:49;32.83;;;20.75;;
59788;SDS011;47353;51.614;5.530;2022-11-15T05:01:15;35.35;;;20.98;;
59788;SDS011;47353;51.614;5.530;2022-11-15T05:03:40;36.38;;;20.88;;
59788;SDS011;47353;51.614;5.530;2022-11-15T05:06:25;36.95;;;22.02;;
59788;SDS011;47353;51.614;5.530;2022-11-15T05:08:50;37.72;;;21.30;;
59788;SDS011;47353;51.614;5.530;2022-11-15T05:11:16;36.13;;;21.48;;
59788;SDS011;47353;51.614;5.530;2022-11-15T05:13:41;35.47;;;21.70;;
59788;SDS011;47353;51.614;5.530;2022-11-15T05:16:07;39.22;;;22.13;;
59788;SDS011;47353;51.614;5.530;2022-11-15T05:18:32;33.03;;;20.13;;
59788;SDS011;47353;51.614;5.530;2022-11-15T05:21:04;39.55;;;21.25;;
59788;SDS011;47353;51.614;5.530;2022-11-15T05:23:30;35.47;;;20.83;;
59788;SDS011;47353;51.614;5.530;2022-11-15T05:25:59;34.47;;;22.20;;
59788;SDS011;47353;51.614;5.530;2022-11-15T05:28:25;36.80;;;21.52;;
59788;SDS011;47353;51.614;5.530;2022-11-15T05:30:51;34.67;;;21.48;;
59788;SDS011;47353;51.614;5.530;2022-11-15T05:33:16;36.28;;;21.95;;
59788;SDS011;47353;51.614;5.530;2022-11-15T05:35:44;35.72;;;21.63;;
59788;SDS011;47353;51.614;5.530;2022-11-15T05:38:15;38.75;;;21.92;;
59788;SDS011;47353;51.614;5.530;2022-11-15T05:40:41;39.17;;;20.30;;
59788;SDS011;47353;51.614;5.530;2022-11-15T05:43:07;35.33;;;21.83;;
59788;SDS011;47353;51.614;5.530;2022-11-15T05:45:32;32.45;;;20.30;;
59788;SDS011;47353;51.614;5.530;2022-11-15T05:48:00;40.00;;;22.17;;
59788;SDS011;47353;51.614;5.530;2022-11-15T05:50:29;34.28;;;21.65;;
59788;SDS011;47353;51.614;5.530;2022-11-15T05:52:55;32.22;;;19.92;;
59788;SDS011;47353;51.614;5.530;2022-11-15T05:55:21;36.85;;;21.08;;
59788;SDS011;47353;51.614;5.530;2022-11-15T05:57:47;36.22;;;21.35;;
59788;SDS011;47353;51.614;5.530;2022-11-15T06:00:12;33.63;;;20.70;;
59788;SDS011;47353;51.614;5.530;2022-11-15T06:02:38;32.15;;;19.92;;
59788;SDS011;47353;51.614;5.530;2022-11-15T06:05:03;32.97;;;19.92;;
59788;SDS011;47353;51.614;5.530;2022-11-15T06:07:29;32.50;;;19.52;;
59788;SDS011;47353;51.614;5.530;2022-11-15T06:09:55;29.60;;;18.73;;
59788;SDS011;47353;51.614;5.530;2022-11-15T06:12:20;34.70;;;19.58;;
59788;SDS011;47353;51.614;5.530;2022-11-15T06:14:46;29.75;;;19.48;;
59788;SDS011;47353;51.614;5.530;2022-11-15T06:17:12;32.35;;;19.10;;
59788;SDS011;47353;51.614;5.530;2022-11-15T06:19:37;30.83;;;19.02;;
59788;SDS011;47353;51.614;5.530;2022-11-15T06:22:03;31.00;;;18.98;;
59788;SDS011;47353;51.614;5.530;2022-11-15T06:24:28;29.33;;;18.55;;
59788;SDS011;47353;51.614;5.530;2022-11-15T06:26:53;29.83;;;18.70;;
59788;SDS011;47353;51.614;5.530;2022-11-15T06:29:19;29.92;;;18.75;;
59788;SDS011;47353;51.614;5.530;2022-11-15T06:31:44;30.73;;;18.65;;
59788;SDS011;47353;51.614;5.530;2022-11-15T06:34:10;27.60;;;18.73;;
59788;SDS011;47353;51.614;5.530;2022-11-15T06:36:35;33.10;;;19.10;;
59788;SDS011;47353;51.614;5.530;2022-11-15T06:39:01;32.95;;;20.27;;
59788;SDS011;47353;51.614;5.530;2022-11-15T06:41:28;35.53;;;19.92;;
59788;SDS011;47353;51.614;5.530;2022-11-15T06:43:53;34.42;;;19.90;;
59788;SDS011;47353;51.614;5.530;2022-11-15T06:46:19;31.75;;;19.38;;
59788;SDS011;47353;51.614;5.530;2022-11-15T06:48:44;29.70;;;18.40;;
59788;SDS011;47353;51.614;5.530;2022-11-15T06:51:09;29.27;;;19.48;;
59788;SDS011;47353;51.614;5.530;2022-11-15T06:53:35;33.10;;;19.63;;
59788;SDS011;47353;51.614;5.530;2022-11-15T06:56:01;33.42;;;20.95;;
59788;SDS011;47353;51.614;5.530;2022-11-15T06:58:28;32.05;;;19.13;;
59788;SDS011;47353;51.614;5.530;2022-11-15T07:00:57;31.00;;;19.50;;
59788;SDS011;47353;51.614;5.530;2022-11-15T07:03:24;29.25;;;20.08;;
59788;SDS011;47353;51.614;5.530;2022-11-15T07:05:54;29.67;;;18.88;;
59788;SDS011;47353;51.614;5.530;2022-11-15T07:08:21;27.92;;;18.52;;
59788;SDS011;47353;51.614;5.530;2022-11-15T07:10:47;27.60;;;17.10;;
59788;SDS011;47353;51.614;5.530;2022-11-15T07:13:13;30.88;;;19.02;;
59788;SDS011;47353;51.614;5.530;2022-11-15T07:15:39;27.55;;;18.20;;
59788;SDS011;47353;51.614;5.530;2022-11-15T07:18:04;27.27;;;17.10;;
59788;SDS011;47353;51.614;5.530;2022-11-15T07:20:30;26.58;;;17.13;;
59788;SDS011;47353;51.614;5.530;2022-11-15T07:23:04;24.63;;;16.92;;
59788;SDS011;47353;51.614;5.530;2022-11-15T07:25:30;27.70;;;17.05;;
59788;SDS011;47353;51.614;5.530;2022-11-15T07:27:57;26.48;;;16.30;;
59788;SDS011;47353;51.614;5.530;2022-11-15T07:30:23;24.52;;;16.35;;
59788;SDS011;47353;51.614;5.530;2022-11-15T07:32:53;25.15;;;16.00;;
59788;SDS011;47353;51.614;5.530;2022-11-15T07:35:19;28.58;;;16.67;;
59788;SDS011;47353;51.614;5.530;2022-11-15T07:37:52;25.75;;;16.13;;
59788;SDS011;47353;51.614;5.530;2022-11-15T07:40:21;23.45;;;15.88;;
59788;SDS011;47353;51.614;5.530;2022-11-15T07:42:47;23.73;;;15.95;;
59788;SDS011;47353;51.614;5.530;2022-11-15T07:45:22;24.98;;;14.95;;
59788;SDS011;47353;51.614;5.530;2022-11-15T07:47:50;23.80;;;15.68;;
59788;SDS011;47353;51.614;5.530;2022-11-15T07:50:17;24.85;;;14.18;;
59788;SDS011;47353;51.614;5.530;2022-11-15T07:52:42;25.73;;;16.23;;
59788;SDS011;47353;51.614;5.530;2022-11-15T07:55:08;25.15;;;15.88;;
59788;SDS011;47353;51.614;5.530;2022-11-15T07:57:34;24.35;;;15.73;;
59788;SDS011;47353;51.614;5.530;2022-11-15T08:00:00;26.15;;;16.65;;
59788;SDS011;47353;51.614;5.530;2022-11-15T08:02:25;27.48;;;16.92;;
59788;SDS011;47353;51.614;5.530;2022-11-15T08:04:50;28.83;;;16.55;;
59788;SDS011;47353;51.614;5.530;2022-11-15T08:07:16;28.98;;;17.38;;
59788;SDS011;47353;51.614;5.530;2022-11-15T08:09:41;27.50;;;16.85;;
59788;SDS011;47353;51.614;5.530;2022-11-15T08:12:07;28.08;;;16.33;;
59788;SDS011;47353;51.614;5.530;2022-11-15T08:14:32;26.20;;;16.42;;
59788;SDS011;47353;51.614;5.530;2022-11-15T08:16:58;26.45;;;16.10;;
59788;SDS011;47353;51.614;5.530;2022-11-15T08:19:23;22.83;;;15.93;;
59788;SDS011;47353;51.614;5.530;2022-11-15T08:21:48;24.95;;;15.13;;
59788;SDS011;47353;51.614;5.530;2022-11-15T08:24:14;21.77;;;14.20;;
59788;SDS011;47353;51.614;5.530;2022-11-15T08:26:40;24.42;;;14.60;;
59788;SDS011;47353;51.614;5.530;2022-11-15T08:29:05;24.73;;;14.05;;
59788;SDS011;47353;51.614;5.530;2022-11-15T08:31:33;24.20;;;13.57;;
59788;SDS011;47353;51.614;5.530;2022-11-15T08:34:01;22.80;;;13.57;;
59788;SDS011;47353;51.614;5.530;2022-11-15T08:36:27;21.10;;;11.13;;
59788;SDS011;47353;51.614;5.530;2022-11-15T08:38:52;22.38;;;12.60;;
59788;SDS011;47353;51.614;5.530;2022-11-15T08:41:25;20.00;;;11.63;;
59788;SDS011;47353;51.614;5.530;2022-11-15T08:46:16;15.75;;;10.73;;
59788;SDS011;47353;51.614;5.530;2022-11-15T08:48:43;18.73;;;10.68;;
59788;SDS011;47353;51.614;5.530;2022-11-15T08:51:08;18.48;;;11.07;;
59788;SDS011;47353;51.614;5.530;2022-11-15T08:53:34;13.25;;;10.43;;
59788;SDS011;47353;51.614;5.530;2022-11-15T08:55:59;14.80;;;9.75;;
59788;SDS011;47353;51.614;5.530;2022-11-15T08:58:25;13.15;;;9.18;;
59788;SDS011;47353;51.614;5.530;2022-11-15T09:00:50;12.52;;;8.90;;
59788;SDS011;47353;51.614;5.530;2022-11-15T09:03:16;12.82;;;9.10;;
59788;SDS011;47353;51.614;5.530;2022-11-15T09:05:41;16.38;;;7.85;;
59788;SDS011;47353;51.614;5.530;2022-11-15T09:08:07;13.18;;;7.70;;
59788;SDS011;47353;51.614;5.530;2022-11-15T09:10:32;10.35;;;7.70;;
59788;SDS011;47353;51.614;5.530;2022-11-15T09:12:57;11.82;;;6.72;;
59788;SDS011;47353;51.614;5.530;2022-11-15T09:15:23;11.02;;;7.13;;
59788;SDS011;47353;51.614;5.530;2022-11-15T09:17:48;8.32;;;6.38;;
59788;SDS011;47353;51.614;5.530;2022-11-15T09:20:14;11.02;;;6.43;;
59788;SDS011;47353;51.614;5.530;2022-11-15T09:22:39;10.45;;;6.20;;
59788;SDS011;47353;51.614;5.530;2022-11-15T09:25:05;10.52;;;6.47;;
59788;SDS011;47353;51.614;5.530;2022-11-15T09:27:31;11.32;;;6.75;;
59788;SDS011;47353;51.614;5.530;2022-11-15T09:29:56;9.45;;;5.60;;
59788;SDS011;47353;51.614;5.530;2022-11-15T09:32:22;9.35;;;6.45;;
59788;SDS011;47353;51.614;5.530;2022-11-15T09:34:48;10.25;;;6.57;;
59788;SDS011;47353;51.614;5.530;2022-11-15T09:37:14;10.93;;;6.50;;
59788;SDS011;47353;51.614;5.530;2022-11-15T09:39:40;12.95;;;6.50;;
59788;SDS011;47353;51.614;5.530;2022-11-15T09:52:41;8.80;;;5.65;;
59788;SDS011;47353;51.614;5.530;2022-11-15T09:55:09;6.63;;;5.30;;
59788;SDS011;47353;51.614;5.530;2022-11-15T09:57:57;7.72;;;4.90;;
59788;SDS011;47353;51.614;5.530;2022-11-15T10:00:35;7.97;;;4.60;;
59788;SDS011;47353;51.614;5.530;2022-11-15T10:03:17;7.65;;;4.22;;
59788;SDS011;47353;51.614;5.530;2022-11-15T10:05:49;6.07;;;3.72;;
59788;SDS011;47353;51.614;5.530;2022-11-15T10:08:30;7.63;;;3.63;;
59788;SDS011;47353;51.614;5.530;2022-11-15T10:11:03;4.75;;;3.35;;
59788;SDS011;47353;51.614;5.530;2022-11-15T10:13:33;3.78;;;2.92;;
59788;SDS011;47353;51.614;5.530;2022-11-15T10:16:12;4.75;;;2.30;;
59788;SDS011;47353;51.614;5.530;2022-11-15T10:22:00;6.78;;;2.45;;
59788;SDS011;47353;51.614;5.530;2022-11-15T10:24:50;180.98;;;10.88;;
59788;SDS011;47353;51.614;5.530;2022-11-15T10:27:25;6.78;;;1.80;;
59788;SDS011;47353;51.614;5.530;2022-11-15T10:29:50;10.35;;;1.67;;
59788;SDS011;47353;51.614;5.530;2022-11-15T10:32:17;4.95;;;1.60;;
59788;SDS011;47353;51.614;5.530;2022-11-15T10:34:44;6.13;;;1.77;;
59788;SDS011;47353;51.614;5.530;2022-11-15T10:37:10;5.25;;;1.50;;
59788;SDS011;47353;51.614;5.530;2022-11-15T10:39:35;9.38;;;1.70;;
59788;SDS011;47353;51.614;5.530;2022-11-15T10:44:51;3.60;;;1.70;;
59788;SDS011;47353;51.614;5.530;2022-11-15T10:47:24;3.42;;;1.55;;
59788;SDS011;47353;51.614;5.530;2022-11-15T10:49:56;6.68;;;1.30;;
59788;SDS011;47353;51.614;5.530;2022-11-15T10:52:21;3.15;;;1.20;;
59788;SDS011;47353;51.614;5.530;2022-11-15T10:57:36;2.95;;;1.30;;
59788;SDS011;47353;51.614;5.530;2022-11-15T11:07:57;5.32;;;1.38;;
59788;SDS011;47353;51.614;5.530;2022-11-15T11:10:24;3.47;;;1.27;;
59788;SDS011;47353;51.614;5.530;2022-11-15T11:12:49;4.07;;;1.35;;
59788;SDS011;47353;51.614;5.530;2022-11-15T11:15:15;2.90;;;1.40;;
59788;SDS011;47353;51.614;5.530;2022-11-15T11:17:51;1.77;;;1.10;;
59788;SDS011;47353;51.614;5.530;2022-11-15T11:25:48;3.05;;;1.10;;
59788;SDS011;47353;51.614;5.530;2022-11-15T11:31:28;5.85;;;1.33;;
59788;SDS011;47353;51.614;5.530;2022-11-15T11:34:29;2.92;;;1.10;;
59788;SDS011;47353;51.614;5.530;2022-11-15T11:37:14;5.30;;;1.40;;
59788;SDS011;47353;51.614;5.530;2022-11-15T11:49:09;3.30;;;1.38;;
59788;SDS011;47353;51.614;5.530;2022-11-15T11:51:42;4.65;;;1.30;;
59788;SDS011;47353;51.614;5.530;2022-11-15T11:54:17;3.03;;;1.42;;
59788;SDS011;47353;51.614;5.530;2022-11-15T11:56:47;7.45;;;1.40;;
59788;SDS011;47353;51.614;5.530;2022-11-15T11:59:25;2.10;;;1.13;;
59788;SDS011;47353;51.614;5.530;2022-11-15T12:02:12;2.95;;;1.15;;
59788;SDS011;47353;51.614;5.530;2022-11-15T12:04:45;3.03;;;1.20;;
59788;SDS011;47353;51.614;5.530;2022-11-15T12:07:24;4.13;;;1.40;;
59788;SDS011;47353;51.614;5.530;2022-11-15T12:12:42;3.25;;;1.30;;
59788;SDS011;47353;51.614;5.530;2022-11-15T12:15:22;3.28;;;1.52;;
59788;SDS011;47353;51.614;5.530;2022-11-15T12:17:51;5.50;;;1.65;;
59788;SDS011;47353;51.614;5.530;2022-11-15T12:20:18;4.38;;;1.50;;
59788;SDS011;47353;51.614;5.530;2022-11-15T12:28:21;3.83;;;1.33;;
59788;SDS011;47353;51.614;5.530;2022-11-15T12:33:42;3.70;;;1.17;;
59788;SDS011;47353;51.614;5.530;2022-11-15T12:38:53;4.50;;;1.30;;
59788;SDS011;47353;51.614;5.530;2022-11-15T13:22:41;4.85;;;1.40;;
59788;SDS011;47353;51.614;5.530;2022-11-15T13:27:48;3.47;;;1.50;;
59788;SDS011;47353;51.614;5.530;2022-11-15T13:30:18;4.35;;;1.55;;
59788;SDS011;47353;51.614;5.530;2022-11-15T13:32:50;6.65;;;1.60;;
59788;SDS011;47353;51.614;5.530;2022-11-15T13:35:21;3.80;;;1.40;;
59788;SDS011;47353;51.614;5.530;2022-11-15T13:37:49;4.75;;;1.30;;
59788;SDS011;47353;51.614;5.530;2022-11-15T13:40:18;5.90;;;1.48;;
59788;SDS011;47353;51.614;5.530;2022-11-15T13:42:47;3.58;;;1.40;;
59788;SDS011;47353;51.614;5.530;2022-11-15T13:45:13;5.35;;;1.63;;
59788;SDS011;47353;51.614;5.530;2022-11-15T13:47:41;3.35;;;1.13;;
59788;SDS011;47353;51.614;5.530;2022-11-15T13:50:10;5.07;;;1.35;;
59788;SDS011;47353;51.614;5.530;2022-11-15T13:52:36;5.97;;;1.20;;
59788;SDS011;47353;51.614;5.530;2022-11-15T13:55:09;4.72;;;1.15;;
59788;SDS011;47353;51.614;5.530;2022-11-15T13:57:54;4.30;;;1.10;;
59788;SDS011;47353;51.614;5.530;2022-11-15T14:03:05;3.87;;;1.10;;
59788;SDS011;47353;51.614;5.530;2022-11-15T14:05:39;5.30;;;1.10;;
59788;SDS011;47353;51.614;5.530;2022-11-15T14:08:22;3.78;;;1.20;;
59788;SDS011;47353;51.614;5.530;2022-11-15T14:10:48;3.58;;;1.00;;
59788;SDS011;47353;51.614;5.530;2022-11-15T14:13:31;3.20;;;1.10;;
59788;SDS011;47353;51.614;5.530;2022-11-15T14:18:59;2.75;;;1.08;;
59788;SDS011;47353;51.614;5.530;2022-11-15T14:21:25;4.68;;;1.50;;
59788;SDS011;47353;51.614;5.530;2022-11-15T14:23:50;4.72;;;1.25;;
59788;SDS011;47353;51.614;5.530;2022-11-15T14:26:33;4.63;;;1.13;;
59788;SDS011;47353;51.614;5.530;2022-11-15T14:31:48;7.00;;;1.10;;
59788;SDS011;47353;51.614;5.530;2022-11-15T14:34:14;4.07;;;1.50;;
59788;SDS011;47353;51.614;5.530;2022-11-15T14:36:39;3.53;;;1.15;;
59788;SDS011;47353;51.614;5.530;2022-11-15T14:39:04;3.95;;;1.17;;
59788;SDS011;47353;51.614;5.530;2022-11-15T14:41:33;5.18;;;1.30;;
59788;SDS011;47353;51.614;5.530;2022-11-15T14:44:02;3.70;;;1.23;;
59788;SDS011;47353;51.614;5.530;2022-11-15T14:46:29;3.88;;;1.10;;
59788;SDS011;47353;51.614;5.530;2022-11-15T14:48:54;3.35;;;1.27;;
59788;SDS011;47353;51.614;5.530;2022-11-15T14:51:20;4.78;;;1.40;;
59788;SDS011;47353;51.614;5.530;2022-11-15T14:53:46;2.55;;;1.00;;
59788;SDS011;47353;51.614;5.530;2022-11-15T14:56:12;3.22;;;1.45;;
59788;SDS011;47353;51.614;5.530;2022-11-15T14:58:38;5.20;;;1.20;;
59788;SDS011;47353;51.614;5.530;2022-11-15T15:01:14;2.58;;;1.25;;
59788;SDS011;47353;51.614;5.530;2022-11-15T15:03:44;6.40;;;1.55;;
59788;SDS011;47353;51.614;5.530;2022-11-15T15:06:09;7.18;;;1.58;;
59788;SDS011;47353;51.614;5.530;2022-11-15T15:08:37;4.38;;;1.30;;
59788;SDS011;47353;51.614;5.530;2022-11-15T15:11:03;3.47;;;1.45;;
59788;SDS011;47353;51.614;5.530;2022-11-15T15:13:36;6.13;;;1.30;;
59788;SDS011;47353;51.614;5.530;2022-11-15T15:16:01;4.50;;;1.40;;
59788;SDS011;47353;51.614;5.530;2022-11-15T15:18:27;5.50;;;1.70;;
59788;SDS011;47353;51.614;5.530;2022-11-15T15:20:56;6.28;;;1.83;;
59788;SDS011;47353;51.614;5.530;2022-11-15T15:23:28;3.45;;;1.60;;
59788;SDS011;47353;51.614;5.530;2022-11-15T15:25:56;6.15;;;1.70;;
59788;SDS011;47353;51.614;5.530;2022-11-15T15:28:21;4.05;;;1.40;;
59788;SDS011;47353;51.614;5.530;2022-11-15T15:30:47;2.47;;;1.25;;
59788;SDS011;47353;51.614;5.530;2022-11-15T15:33:14;6.55;;;1.80;;
59788;SDS011;47353;51.614;5.530;2022-11-15T15:35:39;5.10;;;1.65;;
59788;SDS011;47353;51.614;5.530;2022-11-15T15:38:05;2.90;;;1.30;;
59788;SDS011;47353;51.614;5.530;2022-11-15T15:40:31;4.57;;;1.40;;
59788;SDS011;47353;51.614;5.530;2022-11-15T15:42:58;6.43;;;1.50;;
59788;SDS011;47353;51.614;5.530;2022-11-15T15:45:24;3.13;;;1.45;;
59788;SDS011;47353;51.614;5.530;2022-11-15T15:47:50;3.05;;;1.40;;
59788;SDS011;47353;51.614;5.530;2022-11-15T15:52:53;4.15;;;1.33;;
59788;SDS011;47353;51.614;5.530;2022-11-15T15:55:23;4.43;;;1.23;;
59788;SDS011;47353;51.614;5.530;2022-11-15T15:57:49;6.95;;;1.75;;
59788;SDS011;47353;51.614;5.530;2022-11-15T16:00:14;4.78;;;1.70;;
59788;SDS011;47353;51.614;5.530;2022-11-15T16:02:41;4.72;;;1.98;;
59788;SDS011;47353;51.614;5.530;2022-11-15T16:05:07;7.28;;;2.10;;
59788;SDS011;47353;51.614;5.530;2022-11-15T16:07:34;6.03;;;2.10;;
59788;SDS011;47353;51.614;5.530;2022-11-15T16:09:59;5.47;;;1.80;;
59788;SDS011;47353;51.614;5.530;2022-11-15T16:12:26;9.13;;;1.90;;
59788;SDS011;47353;51.614;5.530;2022-11-15T16:14:54;4.95;;;2.10;;
59788;SDS011;47353;51.614;5.530;2022-11-15T16:17:20;7.78;;;2.20;;
59788;SDS011;47353;51.614;5.530;2022-11-15T16:19:47;5.13;;;1.80;;
59788;SDS011;47353;51.614;5.530;2022-11-15T16:22:13;7.15;;;2.00;;
59788;SDS011;47353;51.614;5.530;2022-11-15T16:24:39;6.90;;;2.10;;
59788;SDS011;47353;51.614;5.530;2022-11-15T16:27:04;7.38;;;2.45;;
59788;SDS011;47353;51.614;5.530;2022-11-15T16:29:29;4.90;;;2.70;;
59788;SDS011;47353;51.614;5.530;2022-11-15T16:31:55;8.38;;;2.95;;
59788;SDS011;47353;51.614;5.530;2022-11-15T16:34:21;8.77;;;3.00;;
59788;SDS011;47353;51.614;5.530;2022-11-15T16:36:46;6.50;;;2.97;;
59788;SDS011;47353;51.614;5.530;2022-11-15T16:39:12;7.43;;;2.88;;
59788;SDS011;47353;51.614;5.530;2022-11-15T16:41:38;9.95;;;3.80;;
59788;SDS011;47353;51.614;5.530;2022-11-15T16:44:04;8.40;;;3.50;;
59788;SDS011;47353;51.614;5.530;2022-11-15T16:46:30;8.20;;;3.40;;
59788;SDS011;47353;51.614;5.530;2022-11-15T16:48:55;10.25;;;3.58;;
59788;SDS011;47353;51.614;5.530;2022-11-15T16:51:21;6.57;;;3.10;;
59788;SDS011;47353;51.614;5.530;2022-11-15T16:53:47;5.40;;;2.42;;